sensor_id;sensor_type;location;lat;lon;timestamp;pressure;altitude;pressure_sealevel;temperature;humidity
48015;BME280;33780;51.034;7.120;2023-04-15T00:01:53;99940.25;;;9.11;54.65
48015;BME280;33780;51.034;7.120;2023-04-15T00:04:19;99940.81;;;9.05;54.36
48015;BME280;33780;51.034;7.120;2023-04-15T00:06:49;99934.09;;;9.01;55.01
48015;BME280;33780;51.034;7.120;2023-04-15T00:09:17;99931.81;;;8.96;54.86
48015;BME280;33780;51.034;7.120;2023-04-15T00:11:42;99933.78;;;8.94;55.33
48015;BME280;33780;51.034;7.120;2023-04-15T00:14:07;99926.06;;;8.91;55.33
48015;BME280;33780;51.034;7.120;2023-04-15T00:16:33;99927.91;;;8.91;55.45
48015;BME280;33780;51.034;7.120;2023-04-15T00:18:58;99931.84;;;8.87;55.35
48015;BME280;33780;51.034;7.120;2023-04-15T00:21:23;99925.94;;;8.83;55.60
48015;BME280;33780;51.034;7.120;2023-04-15T00:23:49;99929.00;;;8.78;55.61
48015;BME280;33780;51.034;7.120;2023-04-15T00:26:17;99921.44;;;8.74;55.56
48015;BME280;33780;51.034;7.120;2023-04-15T00:28:43;99927.06;;;8.71;55.40
48015;BME280;33780;51.034;7.120;2023-04-15T00:31:09;99923.69;;;8.69;55.50
48015;BME280;33780;51.034;7.120;2023-04-15T00:33:34;99924.66;;;8.68;55.57
48015;BME280;33780;51.034;7.120;2023-04-15T00:36:00;99924.81;;;8.66;55.40
48015;BME280;33780;51.034;7.120;2023-04-15T00:38:27;99925.09;;;8.63;55.83
48015;BME280;33780;51.034;7.120;2023-04-15T00:40:52;99923.53;;;8.61;55.95
48015;BME280;33780;51.034;7.120;2023-04-15T00:43:17;99921.13;;;8.58;56.29
48015;BME280;33780;51.034;7.120;2023-04-15T00:45:43;99923.94;;;8.56;56.04
48015;BME280;33780;51.034;7.120;2023-04-15T00:48:08;99919.59;;;8.55;55.57
48015;BME280;33780;51.034;7.120;2023-04-15T00:50:35;99923.25;;;8.54;55.73
48015;BME280;33780;51.034;7.120;2023-04-15T00:53:00;99913.69;;;8.52;55.80
48015;BME280;33780;51.034;7.120;2023-04-15T00:55:26;99923.66;;;8.50;56.26
48015;BME280;33780;51.034;7.120;2023-04-15T00:57:52;99922.25;;;8.45;56.23
48015;BME280;33780;51.034;7.120;2023-04-15T01:00:17;99933.06;;;8.44;56.39
48015;BME280;33780;51.034;7.120;2023-04-15T01:02:44;99927.00;;;8.42;56.49
48015;BME280;33780;51.034;7.120;2023-04-15T01:05:10;99922.78;;;8.39;56.45
48015;BME280;33780;51.034;7.120;2023-04-15T01:07:35;99917.59;;;8.38;56.67
48015;BME280;33780;51.034;7.120;2023-04-15T01:10:02;99915.91;;;8.37;56.70
48015;BME280;33780;51.034;7.120;2023-04-15T01:12:27;99922.22;;;8.36;56.54
48015;BME280;33780;51.034;7.120;2023-04-15T01:14:54;99915.47;;;8.32;56.52
48015;BME280;33780;51.034;7.120;2023-04-15T01:17:19;99912.94;;;8.30;56.32
48015;BME280;33780;51.034;7.120;2023-04-15T01:19:45;99914.06;;;8.28;57.45
48015;BME280;33780;51.034;7.120;2023-04-15T01:22:11;99910.78;;;8.24;56.54
48015;BME280;33780;51.034;7.120;2023-04-15T01:24:36;99913.59;;;8.23;57.00
48015;BME280;33780;51.034;7.120;2023-04-15T01:27:03;99912.91;;;8.21;56.95
48015;BME280;33780;51.034;7.120;2023-04-15T01:29:30;99914.84;;;8.18;56.86
48015;BME280;33780;51.034;7.120;2023-04-15T01:31:55;99911.63;;;8.15;56.89
48015;BME280;33780;51.034;7.120;2023-04-15T01:34:21;99918.22;;;8.11;56.64
48015;BME280;33780;51.034;7.120;2023-04-15T01:36:47;99919.34;;;8.08;56.77
48015;BME280;33780;51.034;7.120;2023-04-15T01:39:13;99915.09;;;8.06;56.98
48015;BME280;33780;51.034;7.120;2023-04-15T01:41:38;99921.53;;;8.03;57.08
48015;BME280;33780;51.034;7.120;2023-04-15T01:44:05;99916.47;;;8.00;56.65
48015;BME280;33780;51.034;7.120;2023-04-15T01:46:31;99916.63;;;7.99;56.79
48015;BME280;33780;51.034;7.120;2023-04-15T01:48:56;99914.38;;;7.94;57.15
48015;BME280;33780;51.034;7.120;2023-04-15T01:51:22;99919.00;;;7.92;56.97
48015;BME280;33780;51.034;7.120;2023-04-15T01:53:47;99912.22;;;7.88;57.10
48015;BME280;33780;51.034;7.120;2023-04-15T01:56:13;99913.34;;;7.85;57.11
48015;BME280;33780;51.034;7.120;2023-04-15T01:58:38;99910.81;;;7.84;57.37
48015;BME280;33780;51.034;7.120;2023-04-15T02:01:04;99910.38;;;7.79;57.29
48015;BME280;33780;51.034;7.120;2023-04-15T02:03:29;99910.53;;;7.77;56.94
48015;BME280;33780;51.034;7.120;2023-04-15T02:05:55;99907.16;;;7.75;57.41
48015;BME280;33780;51.034;7.120;2023-04-15T02:08:20;99910.78;;;7.74;56.81
48015;BME280;33780;51.034;7.120;2023-04-15T02:10:46;99909.22;;;7.72;57.79
48015;BME280;33780;51.034;7.120;2023-04-15T02:13:12;99906.97;;;7.67;57.27
48015;BME280;33780;51.034;7.120;2023-04-15T02:15:37;99918.84;;;7.63;57.82
48015;BME280;33780;51.034;7.120;2023-04-15T02:18:03;99912.13;;;7.59;57.17
48015;BME280;33780;51.034;7.120;2023-04-15T02:20:28;99923.03;;;7.56;57.81
48015;BME280;33780;51.034;7.120;2023-04-15T02:22:55;99924.97;;;7.54;57.73
48015;BME280;33780;51.034;7.120;2023-04-15T02:25:21;99927.75;;;7.52;58.15
48015;BME280;33780;51.034;7.120;2023-04-15T02:27:46;99920.88;;;7.50;57.53
48015;BME280;33780;51.034;7.120;2023-04-15T02:30:12;99925.34;;;7.49;57.62
48015;BME280;33780;51.034;7.120;2023-04-15T02:32:38;99929.00;;;7.48;57.71
48015;BME280;33780;51.034;7.120;2023-04-15T02:35:05;99926.59;;;7.45;57.82
48015;BME280;33780;51.034;7.120;2023-04-15T02:37:31;99928.56;;;7.43;57.73
48015;BME280;33780;51.034;7.120;2023-04-15T02:39:56;99930.50;;;7.41;57.69
48015;BME280;33780;51.034;7.120;2023-04-15T02:42:21;99930.78;;;7.38;57.97
48015;BME280;33780;51.034;7.120;2023-04-15T02:44:47;99933.56;;;7.37;57.75
48015;BME280;33780;51.034;7.120;2023-04-15T02:47:12;99939.00;;;7.35;57.98
48015;BME280;33780;51.034;7.120;2023-04-15T02:49:38;99936.47;;;7.34;57.96
48015;BME280;33780;51.034;7.120;2023-04-15T02:52:04;99949.19;;;7.30;58.21
48015;BME280;33780;51.034;7.120;2023-04-15T02:54:30;99945.97;;;7.26;58.39
48015;BME280;33780;51.034;7.120;2023-04-15T02:56:58;99939.09;;;7.24;57.73
48015;BME280;33780;51.034;7.120;2023-04-15T02:59:23;99938.50;;;7.20;58.23
48015;BME280;33780;51.034;7.120;2023-04-15T03:01:48;99943.97;;;7.19;58.15
48015;BME280;33780;51.034;7.120;2023-04-15T03:04:13;99948.66;;;7.15;58.36
48015;BME280;33780;51.034;7.120;2023-04-15T03:06:39;99947.13;;;7.13;58.42
48015;BME280;33780;51.034;7.120;2023-04-15T03:09:04;99944.72;;;7.10;58.40
48015;BME280;33780;51.034;7.120;2023-04-15T03:11:30;99947.63;;;7.07;58.68
48015;BME280;33780;51.034;7.120;2023-04-15T03:13:56;99946.94;;;7.05;58.47
48015;BME280;33780;51.034;7.120;2023-04-15T03:16:22;99950.56;;;7.04;58.10
48015;BME280;33780;51.034;7.120;2023-04-15T03:18:47;99956.25;;;6.99;58.81
48015;BME280;33780;51.034;7.120;2023-04-15T03:21:13;99953.84;;;6.96;58.76
48015;BME280;33780;51.034;7.120;2023-04-15T03:23:38;99949.50;;;6.95;58.61
48015;BME280;33780;51.034;7.120;2023-04-15T03:26:04;99949.63;;;6.93;58.88
48015;BME280;33780;51.034;7.120;2023-04-15T03:28:30;99951.56;;;6.91;58.88
48015;BME280;33780;51.034;7.120;2023-04-15T03:30:56;99962.34;;;6.90;58.84
48015;BME280;33780;51.034;7.120;2023-04-15T03:33:21;99956.31;;;6.88;58.77
48015;BME280;33780;51.034;7.120;2023-04-15T03:35:47;99960.91;;;6.86;58.72
48015;BME280;33780;51.034;7.120;2023-04-15T03:38:12;99960.19;;;6.84;58.57
48015;BME280;33780;51.034;7.120;2023-04-15T03:40:39;99960.31;;;6.82;59.15
48015;BME280;33780;51.034;7.120;2023-04-15T03:43:05;99964.78;;;6.82;59.23
48015;BME280;33780;51.034;7.120;2023-04-15T03:45:30;99965.75;;;6.81;59.11
48015;BME280;33780;51.034;7.120;2023-04-15T03:47:55;99968.53;;;6.79;59.06
48015;BME280;33780;51.034;7.120;2023-04-15T03:50:21;99970.34;;;6.79;59.26
48015;BME280;33780;51.034;7.120;2023-04-15T03:52:46;99968.78;;;6.76;59.24
48015;BME280;33780;51.034;7.120;2023-04-15T03:55:11;99968.06;;;6.74;59.51
48015;BME280;33780;51.034;7.120;2023-04-15T03:57:37;99965.53;;;6.73;59.46
48015;BME280;33780;51.034;7.120;2023-04-15T04:00:07;99962.16;;;6.71;59.17
48015;BME280;33780;51.034;7.120;2023-04-15T04:02:36;99972.81;;;6.71;59.32
48015;BME280;33780;51.034;7.120;2023-04-15T04:05:01;99970.28;;;6.69;59.30
48015;BME280;33780;51.034;7.120;2023-04-15T04:07:26;99969.69;;;6.65;59.18
48015;BME280;33780;51.034;7.120;2023-04-15T04:09:51;99970.75;;;6.63;59.61
48015;BME280;33780;51.034;7.120;2023-04-15T04:12:17;99972.69;;;6.61;59.50
48015;BME280;33780;51.034;7.120;2023-04-15T04:14:42;99967.50;;;6.59;59.62
48015;BME280;33780;51.034;7.120;2023-04-15T04:17:07;99971.97;;;6.59;59.47
48015;BME280;33780;51.034;7.120;2023-04-15T04:19:33;99973.91;;;6.57;59.58
48015;BME280;33780;51.034;7.120;2023-04-15T04:21:58;99972.34;;;6.54;59.53
48015;BME280;33780;51.034;7.120;2023-04-15T04:24:24;99977.94;;;6.51;59.51
48015;BME280;33780;51.034;7.120;2023-04-15T04:26:49;99979.03;;;6.49;59.84
48015;BME280;33780;51.034;7.120;2023-04-15T04:29:15;99978.31;;;6.47;59.70
48015;BME280;33780;51.034;7.120;2023-04-15T04:31:40;99974.91;;;6.45;59.28
48015;BME280;33780;51.034;7.120;2023-04-15T04:34:05;99975.03;;;6.43;59.76
48015;BME280;33780;51.034;7.120;2023-04-15T04:36:30;99973.47;;;6.41;59.75
48015;BME280;33780;51.034;7.120;2023-04-15T04:38:56;99987.72;;;6.40;59.44
48015;BME280;33780;51.034;7.120;2023-04-15T04:41:21;99999.31;;;6.39;60.09
48015;BME280;33780;51.034;7.120;2023-04-15T04:43:46;99991.59;;;6.35;59.51
48015;BME280;33780;51.034;7.120;2023-04-15T04:46:12;99994.38;;;6.34;59.59
48015;BME280;33780;51.034;7.120;2023-04-15T04:48:37;99997.28;;;6.31;59.88
48015;BME280;33780;51.034;7.120;2023-04-15T04:51:03;100004.53;;;6.29;59.60
48015;BME280;33780;51.034;7.120;2023-04-15T04:53:28;99996.66;;;6.27;59.90
48015;BME280;33780;51.034;7.120;2023-04-15T04:55:54;100002.94;;;6.26;59.90
48015;BME280;33780;51.034;7.120;2023-04-15T04:58:19;100002.94;;;6.26;59.70
48015;BME280;33780;51.034;7.120;2023-04-15T05:00:44;100004.88;;;6.24;59.79
48015;BME280;33780;51.034;7.120;2023-04-15T05:03:10;100005.00;;;6.23;60.02
48015;BME280;33780;51.034;7.120;2023-04-15T05:05:35;100005.84;;;6.23;60.09
48015;BME280;33780;51.034;7.120;2023-04-15T05:08:03;100015.50;;;6.24;59.68
48015;BME280;33780;51.034;7.120;2023-04-15T05:10:29;100027.94;;;6.24;59.56
48015;BME280;33780;51.034;7.120;2023-04-15T05:12:55;100027.09;;;6.23;59.86
48015;BME280;33780;51.034;7.120;2023-04-15T05:15:20;100029.75;;;6.23;60.02
48015;BME280;33780;51.034;7.120;2023-04-15T05:17:45;100031.56;;;6.23;60.43
48015;BME280;33780;51.034;7.120;2023-04-15T05:20:11;100027.22;;;6.22;60.22
48015;BME280;33780;51.034;7.120;2023-04-15T05:22:36;100035.31;;;6.20;60.33
48015;BME280;33780;51.034;7.120;2023-04-15T05:25:02;100033.63;;;6.19;60.10
48015;BME280;33780;51.034;7.120;2023-04-15T05:27:28;100033.63;;;6.19;60.52
48015;BME280;33780;51.034;7.120;2023-04-15T05:29:53;100035.44;;;6.19;60.05
48015;BME280;33780;51.034;7.120;2023-04-15T05:32:18;100039.78;;;6.20;60.81
48015;BME280;33780;51.034;7.120;2023-04-15T05:34:43;100042.44;;;6.20;60.71
48015;BME280;33780;51.034;7.120;2023-04-15T05:37:09;100043.28;;;6.20;60.59
48015;BME280;33780;51.034;7.120;2023-04-15T05:39:34;100047.63;;;6.21;60.96
48015;BME280;33780;51.034;7.120;2023-04-15T05:42:00;100043.03;;;6.23;60.95
48015;BME280;33780;51.034;7.120;2023-04-15T05:44:25;100048.38;;;6.23;61.11
48015;BME280;33780;51.034;7.120;2023-04-15T05:46:50;100047.41;;;6.24;60.88
48015;BME280;33780;51.034;7.120;2023-04-15T05:49:16;100055.13;;;6.27;61.13
48015;BME280;33780;51.034;7.120;2023-04-15T05:51:41;100062.88;;;6.30;61.45
48015;BME280;33780;51.034;7.120;2023-04-15T05:54:06;100060.94;;;6.32;61.42
48015;BME280;33780;51.034;7.120;2023-04-15T05:56:31;100059.72;;;6.36;60.92
48015;BME280;33780;51.034;7.120;2023-04-15T05:58:57;100057.66;;;6.40;61.22
48015;BME280;33780;51.034;7.120;2023-04-15T06:01:22;100066.22;;;6.44;61.68
48015;BME280;33780;51.034;7.120;2023-04-15T06:03:48;100067.72;;;6.48;61.57
48015;BME280;33780;51.034;7.120;2023-04-15T06:06:13;100061.03;;;6.53;61.55
48015;BME280;33780;51.034;7.120;2023-04-15T06:08:39;100056.19;;;6.58;62.29
48015;BME280;33780;51.034;7.120;2023-04-15T06:11:04;100067.31;;;6.63;62.18
48015;BME280;33780;51.034;7.120;2023-04-15T06:13:30;100065.13;;;6.69;61.99
48015;BME280;33780;51.034;7.120;2023-04-15T06:15:55;100069.81;;;6.76;61.54
48015;BME280;33780;51.034;7.120;2023-04-15T06:18:20;100081.69;;;6.83;62.11
48015;BME280;33780;51.034;7.120;2023-04-15T06:20:46;100076.69;;;6.90;62.21
48015;BME280;33780;51.034;7.120;2023-04-15T06:23:11;100076.06;;;6.97;61.87
48015;BME280;33780;51.034;7.120;2023-04-15T06:25:36;100078.00;;;7.07;62.75
48015;BME280;33780;51.034;7.120;2023-04-15T06:28:02;100081.72;;;7.15;62.70
48015;BME280;33780;51.034;7.120;2023-04-15T06:30:27;100080.13;;;7.24;62.49
48015;BME280;33780;51.034;7.120;2023-04-15T06:32:53;100086.34;;;7.34;62.27
48015;BME280;33780;51.034;7.120;2023-04-15T06:35:19;100081.00;;;7.45;62.82
48015;BME280;33780;51.034;7.120;2023-04-15T06:37:44;100083.63;;;7.56;62.16
48015;BME280;33780;51.034;7.120;2023-04-15T06:40:10;100088.03;;;7.67;62.31
48015;BME280;33780;51.034;7.120;2023-04-15T06:42:35;100084.47;;;7.78;62.43
48015;BME280;33780;51.034;7.120;2023-04-15T06:45:02;100089.72;;;7.89;62.16
48015;BME280;33780;51.034;7.120;2023-04-15T06:47:28;100087.00;;;8.00;62.27
48015;BME280;33780;51.034;7.120;2023-04-15T06:49:53;100089.75;;;8.10;62.32
48015;BME280;33780;51.034;7.120;2023-04-15T06:52:18;100092.31;;;8.21;62.05
48015;BME280;33780;51.034;7.120;2023-04-15T06:54:44;100098.56;;;8.31;61.83
48015;BME280;33780;51.034;7.120;2023-04-15T06:57:09;100099.47;;;8.41;62.45
48015;BME280;33780;51.034;7.120;2023-04-15T06:59:35;100097.69;;;8.52;62.42
48015;BME280;33780;51.034;7.120;2023-04-15T07:02:00;100096.88;;;8.61;61.79
48015;BME280;33780;51.034;7.120;2023-04-15T07:04:26;100096.09;;;8.70;62.43
48015;BME280;33780;51.034;7.120;2023-04-15T07:06:52;100097.81;;;8.81;63.59
48015;BME280;33780;51.034;7.120;2023-04-15T07:09:18;100094.19;;;8.91;62.96
48015;BME280;33780;51.034;7.120;2023-04-15T07:11:46;100103.91;;;9.02;63.34
48015;BME280;33780;51.034;7.120;2023-04-15T07:14:12;100103.06;;;9.11;64.28
48015;BME280;33780;51.034;7.120;2023-04-15T07:16:38;100096.06;;;9.20;62.90
48015;BME280;33780;51.034;7.120;2023-04-15T07:19:03;100098.75;;;9.29;62.75
48015;BME280;33780;51.034;7.120;2023-04-15T07:21:28;100102.56;;;9.36;62.44
48015;BME280;33780;51.034;7.120;2023-04-15T07:23:54;100101.00;;;9.44;62.28
48015;BME280;33780;51.034;7.120;2023-04-15T07:26:19;100103.97;;;9.50;62.12
48015;BME280;33780;51.034;7.120;2023-04-15T07:28:44;100106.78;;;9.58;62.04
48015;BME280;33780;51.034;7.120;2023-04-15T07:31:11;100101.03;;;9.63;61.91
48015;BME280;33780;51.034;7.120;2023-04-15T07:33:36;100109.34;;;9.69;61.90
48015;BME280;33780;51.034;7.120;2023-04-15T07:36:01;100107.06;;;9.75;61.58
48015;BME280;33780;51.034;7.120;2023-04-15T07:38:27;100113.97;;;9.77;61.38
48015;BME280;33780;51.034;7.120;2023-04-15T07:40:52;100115.50;;;9.80;59.76
48015;BME280;33780;51.034;7.120;2023-04-15T07:43:17;100126.03;;;9.81;59.00
48015;BME280;33780;51.034;7.120;2023-04-15T07:45:44;100126.44;;;9.86;59.07
48015;BME280;33780;51.034;7.120;2023-04-15T07:48:09;100128.72;;;9.91;59.25
48015;BME280;33780;51.034;7.120;2023-04-15T07:50:35;100134.19;;;9.99;59.09
48015;BME280;33780;51.034;7.120;2023-04-15T07:53:00;100137.28;;;10.04;59.52
48015;BME280;33780;51.034;7.120;2023-04-15T07:55:26;100133.91;;;10.12;59.28
48015;BME280;33780;51.034;7.120;2023-04-15T07:57:51;100143.16;;;10.17;59.02
48015;BME280;33780;51.034;7.120;2023-04-15T08:00:16;100145.31;;;10.23;58.69
48015;BME280;33780;51.034;7.120;2023-04-15T08:02:42;100140.66;;;10.25;58.68
48015;BME280;33780;51.034;7.120;2023-04-15T08:05:08;100147.25;;;10.31;58.11
48015;BME280;33780;51.034;7.120;2023-04-15T08:07:35;100150.50;;;10.35;58.31
48015;BME280;33780;51.034;7.120;2023-04-15T08:10:01;100148.09;;;10.41;58.40
48015;BME280;33780;51.034;7.120;2023-04-15T08:12:27;100149.34;;;10.47;58.70
48015;BME280;33780;51.034;7.120;2023-04-15T08:14:52;100156.94;;;10.51;58.45
48015;BME280;33780;51.034;7.120;2023-04-15T08:17:19;100153.66;;;10.57;58.30
48015;BME280;33780;51.034;7.120;2023-04-15T08:19:44;100158.44;;;10.64;58.60
48015;BME280;33780;51.034;7.120;2023-04-15T08:22:10;100152.09;;;10.65;57.84
48015;BME280;33780;51.034;7.120;2023-04-15T08:24:36;100159.69;;;10.69;57.99
48015;BME280;33780;51.034;7.120;2023-04-15T08:27:01;100169.41;;;10.70;57.96
48015;BME280;33780;51.034;7.120;2023-04-15T08:29:28;100174.16;;;10.76;58.12
48015;BME280;33780;51.034;7.120;2023-04-15T08:31:54;100175.88;;;10.77;56.66
48015;BME280;33780;51.034;7.120;2023-04-15T08:34:19;100178.41;;;10.79;56.87
48015;BME280;33780;51.034;7.120;2023-04-15T08:36:45;100174.28;;;10.84;56.82
48015;BME280;33780;51.034;7.120;2023-04-15T08:39:10;100177.91;;;10.93;56.74
48015;BME280;33780;51.034;7.120;2023-04-15T08:41:45;100177.88;;;11.03;56.71
48015;BME280;33780;51.034;7.120;2023-04-15T08:44:13;100189.97;;;11.07;56.81
48015;BME280;33780;51.034;7.120;2023-04-15T08:46:38;100169.66;;;11.14;56.14
48015;BME280;33780;51.034;7.120;2023-04-15T08:49:09;100184.44;;;11.18;55.78
48015;BME280;33780;51.034;7.120;2023-04-15T08:51:34;100185.97;;;11.20;55.88
48015;BME280;33780;51.034;7.120;2023-04-15T08:54:01;100177.47;;;11.25;56.03
48015;BME280;33780;51.034;7.120;2023-04-15T08:56:30;100192.81;;;11.33;56.00
48015;BME280;33780;51.034;7.120;2023-04-15T08:58:57;100177.97;;;11.38;56.14
48015;BME280;33780;51.034;7.120;2023-04-15T09:01:22;100195.56;;;11.41;55.83
48015;BME280;33780;51.034;7.120;2023-04-15T09:03:48;100192.44;;;11.45;55.58
48015;BME280;33780;51.034;7.120;2023-04-15T09:06:19;100201.03;;;11.49;54.98
48015;BME280;33780;51.034;7.120;2023-04-15T09:08:44;100210.78;;;11.50;54.28
48015;BME280;33780;51.034;7.120;2023-04-15T09:11:10;100201.88;;;11.49;54.81
48015;BME280;33780;51.034;7.120;2023-04-15T09:13:36;100205.94;;;11.54;54.97
48015;BME280;33780;51.034;7.120;2023-04-15T09:16:03;100205.34;;;11.60;54.82
48015;BME280;33780;51.034;7.120;2023-04-15T09:18:31;100213.22;;;11.61;54.19
48015;BME280;33780;51.034;7.120;2023-04-15T09:21:07;100205.56;;;11.66;54.77
48015;BME280;33780;51.034;7.120;2023-04-15T09:23:35;100208.13;;;11.68;54.03
48015;BME280;33780;51.034;7.120;2023-04-15T09:26:01;100215.00;;;11.70;53.71
48015;BME280;33780;51.034;7.120;2023-04-15T09:28:27;100221.44;;;11.77;54.03
48015;BME280;33780;51.034;7.120;2023-04-15T09:30:57;100221.69;;;11.84;53.76
48015;BME280;33780;51.034;7.120;2023-04-15T09:33:23;100223.78;;;11.90;53.69
48015;BME280;33780;51.034;7.120;2023-04-15T09:35:58;100227.53;;;11.97;53.78
48015;BME280;33780;51.034;7.120;2023-04-15T09:38:24;100226.47;;;12.08;53.94
48015;BME280;33780;51.034;7.120;2023-04-15T09:40:49;100224.00;;;12.15;54.05
48015;BME280;33780;51.034;7.120;2023-04-15T09:43:15;100212.13;;;12.17;52.93
48015;BME280;33780;51.034;7.120;2023-04-15T09:45:53;100220.56;;;12.22;52.62
48015;BME280;33780;51.034;7.120;2023-04-15T09:48:21;100230.16;;;12.25;52.95
48015;BME280;33780;51.034;7.120;2023-04-15T09:50:47;100236.19;;;12.27;52.23
48015;BME280;33780;51.034;7.120;2023-04-15T09:53:20;100237.56;;;12.31;52.99
48015;BME280;33780;51.034;7.120;2023-04-15T09:55:51;100248.63;;;12.28;51.77
48015;BME280;33780;51.034;7.120;2023-04-15T09:58:24;100251.50;;;12.34;53.04
48015;BME280;33780;51.034;7.120;2023-04-15T10:00:51;100255.72;;;12.37;52.56
48015;BME280;33780;51.034;7.120;2023-04-15T10:03:22;100257.03;;;12.33;52.81
48015;BME280;33780;51.034;7.120;2023-04-15T10:05:49;100262.19;;;12.44;53.35
48015;BME280;33780;51.034;7.120;2023-04-15T10:08:19;100265.75;;;12.53;53.36
48015;BME280;33780;51.034;7.120;2023-04-15T10:10:45;100260.31;;;12.62;54.03
48015;BME280;33780;51.034;7.120;2023-04-15T10:13:29;100266.34;;;12.64;53.14
48015;BME280;33780;51.034;7.120;2023-04-15T10:15:59;100266.19;;;12.66;53.25
48015;BME280;33780;51.034;7.120;2023-04-15T10:18:27;100266.19;;;12.66;53.77
48015;BME280;33780;51.034;7.120;2023-04-15T10:20:53;100262.88;;;12.72;54.27
48015;BME280;33780;51.034;7.120;2023-04-15T10:23:21;100272.00;;;12.79;53.59
48015;BME280;33780;51.034;7.120;2023-04-15T10:25:47;100271.53;;;12.84;53.50
48015;BME280;33780;51.034;7.120;2023-04-15T10:28:15;100278.91;;;12.82;53.53
48015;BME280;33780;51.034;7.120;2023-04-15T10:30:41;100279.00;;;12.72;53.78
48015;BME280;33780;51.034;7.120;2023-04-15T10:33:08;100278.69;;;12.75;53.62
48015;BME280;33780;51.034;7.120;2023-04-15T10:35:34;100273.63;;;12.72;54.08
48015;BME280;33780;51.034;7.120;2023-04-15T10:38:00;100278.84;;;12.74;54.00
48015;BME280;33780;51.034;7.120;2023-04-15T10:40:28;100282.63;;;12.63;53.30
48015;BME280;33780;51.034;7.120;2023-04-15T10:42:59;100291.75;;;12.52;53.84
48015;BME280;33780;51.034;7.120;2023-04-15T10:45:37;100293.91;;;12.49;54.21
48015;BME280;33780;51.034;7.120;2023-04-15T10:48:06;100294.59;;;12.51;54.21
48015;BME280;33780;51.034;7.120;2023-04-15T10:50:31;100316.06;;;12.51;54.26
48015;BME280;33780;51.034;7.120;2023-04-15T10:53:02;100298.97;;;12.52;54.58
48015;BME280;33780;51.034;7.120;2023-04-15T10:55:32;100301.19;;;12.56;54.50
48015;BME280;33780;51.034;7.120;2023-04-15T10:57:59;100299.22;;;12.58;54.67
48015;BME280;33780;51.034;7.120;2023-04-15T11:00:27;100314.59;;;12.56;54.79
48015;BME280;33780;51.034;7.120;2023-04-15T11:02:57;100303.81;;;12.48;54.57
48015;BME280;33780;51.034;7.120;2023-04-15T11:05:49;100313.38;;;12.51;55.56
48015;BME280;33780;51.034;7.120;2023-04-15T11:08:15;100310.53;;;12.52;55.29
48015;BME280;33780;51.034;7.120;2023-04-15T11:15:44;100319.06;;;12.48;55.09
48015;BME280;33780;51.034;7.120;2023-04-15T11:18:19;100312.16;;;12.45;55.70
48015;BME280;33780;51.034;7.120;2023-04-15T11:20:50;100315.22;;;12.50;55.77
48015;BME280;33780;51.034;7.120;2023-04-15T11:26:04;100313.91;;;12.72;55.86
48015;BME280;33780;51.034;7.120;2023-04-15T11:28:32;100309.84;;;12.68;55.90
48015;BME280;33780;51.034;7.120;2023-04-15T11:31:04;100316.97;;;12.77;55.81
48015;BME280;33780;51.034;7.120;2023-04-15T11:33:30;100326.56;;;12.80;55.87
48015;BME280;33780;51.034;7.120;2023-04-15T11:35:55;100335.47;;;12.80;55.68
48015;BME280;33780;51.034;7.120;2023-04-15T11:38:21;100341.00;;;12.79;55.86
48015;BME280;33780;51.034;7.120;2023-04-15T11:40:47;100338.38;;;12.69;55.69
48015;BME280;33780;51.034;7.120;2023-04-15T11:43:14;100357.25;;;12.59;56.22
48015;BME280;33780;51.034;7.120;2023-04-15T11:45:57;100352.19;;;12.56;56.82
48015;BME280;33780;51.034;7.120;2023-04-15T11:48:24;100357.53;;;12.56;56.07
48015;BME280;33780;51.034;7.120;2023-04-15T11:50:57;100357.84;;;12.53;56.69
48015;BME280;33780;51.034;7.120;2023-04-15T11:53:24;100358.63;;;12.46;56.45
48015;BME280;33780;51.034;7.120;2023-04-15T11:56:00;100370.53;;;12.43;57.20
48015;BME280;33780;51.034;7.120;2023-04-15T11:58:26;100369.56;;;12.34;57.46
48015;BME280;33780;51.034;7.120;2023-04-15T12:00:59;100368.66;;;12.26;57.82
48015;BME280;33780;51.034;7.120;2023-04-15T12:03:28;100363.75;;;12.21;57.45
48015;BME280;33780;51.034;7.120;2023-04-15T12:06:08;100372.91;;;12.19;57.29
48015;BME280;33780;51.034;7.120;2023-04-15T12:11:44;100385.50;;;12.18;57.53
48015;BME280;33780;51.034;7.120;2023-04-15T12:16:49;100399.06;;;12.17;57.91
48015;BME280;33780;51.034;7.120;2023-04-15T12:19:29;100402.03;;;12.14;58.49
48015;BME280;33780;51.034;7.120;2023-04-15T12:21:58;100399.50;;;12.12;58.50
48015;BME280;33780;51.034;7.120;2023-04-15T12:24:24;100411.41;;;12.09;58.74
48015;BME280;33780;51.034;7.120;2023-04-15T12:26:55;100420.59;;;12.07;58.82
48015;BME280;33780;51.034;7.120;2023-04-15T12:29:26;100411.84;;;12.05;58.41
48015;BME280;33780;51.034;7.120;2023-04-15T12:31:56;100425.94;;;12.07;58.16
48015;BME280;33780;51.034;7.120;2023-04-15T12:34:30;100429.63;;;12.06;58.93
48015;BME280;33780;51.034;7.120;2023-04-15T12:36:56;100442.19;;;12.05;58.89
48015;BME280;33780;51.034;7.120;2023-04-15T12:39:27;100437.47;;;11.90;59.85
48015;BME280;33780;51.034;7.120;2023-04-15T12:41:53;100442.13;;;11.88;59.15
48015;BME280;33780;51.034;7.120;2023-04-15T12:44:23;100447.63;;;11.86;59.55
48015;BME280;33780;51.034;7.120;2023-04-15T12:46:51;100448.75;;;11.84;59.71
48015;BME280;33780;51.034;7.120;2023-04-15T12:49:17;100456.94;;;11.82;60.19
48015;BME280;33780;51.034;7.120;2023-04-15T12:51:45;100456.94;;;11.82;59.84
48015;BME280;33780;51.034;7.120;2023-04-15T12:54:11;100464.00;;;11.83;59.73
48015;BME280;33780;51.034;7.120;2023-04-15T12:56:40;100469.22;;;11.85;59.77
48015;BME280;33780;51.034;7.120;2023-04-15T12:59:05;100464.72;;;11.85;59.87
48015;BME280;33780;51.034;7.120;2023-04-15T13:01:30;100473.88;;;11.83;59.97
48015;BME280;33780;51.034;7.120;2023-04-15T13:03:56;100466.97;;;11.80;60.46
48015;BME280;33780;51.034;7.120;2023-04-15T13:06:21;100486.59;;;11.80;60.33
48015;BME280;33780;51.034;7.120;2023-04-15T13:08:48;100482.22;;;11.79;60.48
48015;BME280;33780;51.034;7.120;2023-04-15T13:11:13;100482.63;;;11.75;60.66